Pagrindinis puslapis
METAR-TAF:

METAR-TAF

Oro uostai :

Ängelholm–Helsingborg

Helsingborgas, Švedija

platuma: 56-17-46N, ilguma: 012-50-50E, Aukštis: 21 m

Dabartinis oras

Ataskaita buvo paskelbta 41 minutes, ne 01:50 UTC
Vėjas 8 kt iš Pietų/Pietryčių
Temperatūra 1°C
Drėgmė 100%
Slėgis 1018 hPa
Matomumas: 3400 m
rūkana,

METAR: ESTA 280150Z AUTO 15008KT 3400 BR OVC023/// 01/01 Q1018

Laikas: 03:31 (02:31 UTC)

Prognozė

Ataskaita buvo paskelbta 5 valandos ir 46 minutes, ne 20:45 UTC
Prognozė galioja nuo 27 metu 21 UTC su 27 metu 23 UTC
Vėjas 5 kt iš Pietų/Pietryčių
Matomumas: 4000 m
Su prošvaistėmis ne aukštis 400 ft
rūkana
Laikinai
nuo 27 metu 21 UTC su 27 metu 23 UTC
Matomumas: 8000 m
Su prošvaistėmis ne aukštis 1500 ft

TAF: ESTA 272045Z 2721/2723 15005KT 4000 BR BKN004 TEMPO 2721/2723 8000 NSW BKN015

Orai ataskaitas ir orų prognozės (METAR, TAF).

turimą stotys yra geltonos ir raudonos taškus žemėlapyje.

Perkelti pele per norėdami pamatyti stoties vardą.

Tada spustelėkite, norėdami matyti oro stebėjimo ir prognozės.

Norėdami pakeisti žemėlapį: spustelėkite ant žalios mygtukų su juodo kryžiaus žemyn,; žalią mygtuką su brūkšneliu, jei norite nutolinti; arba žalių rodyklių gretimoms žemėlapius.


METAR-TAF: